sensor_id;sensor_type;location;lat;lon;timestamp;P1;durP1;ratioP1;P2;durP2;ratioP2
23470;SDS011;11908;50.806;4.424;2023-02-21T00:02:05;36.13;;;23.70;;
23470;SDS011;11908;50.806;4.424;2023-02-21T00:04:49;38.83;;;23.92;;
23470;SDS011;11908;50.806;4.424;2023-02-21T00:07:33;40.75;;;24.75;;
23470;SDS011;11908;50.806;4.424;2023-02-21T00:10:17;40.17;;;24.48;;
23470;SDS011;11908;50.806;4.424;2023-02-21T00:13:01;39.42;;;25.70;;
23470;SDS011;11908;50.806;4.424;2023-02-21T00:15:46;42.88;;;26.77;;
23470;SDS011;11908;50.806;4.424;2023-02-21T00:18:34;47.63;;;27.15;;
23470;SDS011;11908;50.806;4.424;2023-02-21T00:21:19;43.20;;;25.88;;
23470;SDS011;11908;50.806;4.424;2023-02-21T00:24:03;41.80;;;25.27;;
23470;SDS011;11908;50.806;4.424;2023-02-21T00:26:47;38.88;;;24.45;;
23470;SDS011;11908;50.806;4.424;2023-02-21T00:29:32;42.75;;;26.08;;
23470;SDS011;11908;50.806;4.424;2023-02-21T00:35:00;41.47;;;25.30;;
23470;SDS011;11908;50.806;4.424;2023-02-21T00:37:47;40.35;;;24.30;;
23470;SDS011;11908;50.806;4.424;2023-02-21T00:40:33;42.15;;;23.83;;
23470;SDS011;11908;50.806;4.424;2023-02-21T00:43:17;41.83;;;24.13;;
23470;SDS011;11908;50.806;4.424;2023-02-21T00:46:01;38.88;;;23.83;;
23470;SDS011;11908;50.806;4.424;2023-02-21T00:48:45;64.13;;;22.60;;
23470;SDS011;11908;50.806;4.424;2023-02-21T00:51:29;42.83;;;21.98;;
23470;SDS011;11908;50.806;4.424;2023-02-21T00:54:13;39.95;;;22.50;;
23470;SDS011;11908;50.806;4.424;2023-02-21T00:56:57;37.03;;;22.88;;
23470;SDS011;11908;50.806;4.424;2023-02-21T00:59:41;33.60;;;22.35;;
23470;SDS011;11908;50.806;4.424;2023-02-21T01:02:26;32.72;;;21.98;;
23470;SDS011;11908;50.806;4.424;2023-02-21T01:05:10;31.73;;;21.95;;
23470;SDS011;11908;50.806;4.424;2023-02-21T01:07:54;35.85;;;20.88;;
23470;SDS011;11908;50.806;4.424;2023-02-21T01:10:38;42.10;;;21.45;;
23470;SDS011;11908;50.806;4.424;2023-02-21T01:13:22;32.53;;;21.27;;
23470;SDS011;11908;50.806;4.424;2023-02-21T01:16:06;36.20;;;21.55;;
23470;SDS011;11908;50.806;4.424;2023-02-21T01:18:51;51.83;;;21.23;;
23470;SDS011;11908;50.806;4.424;2023-02-21T01:21:35;36.00;;;20.90;;
23470;SDS011;11908;50.806;4.424;2023-02-21T01:24:19;44.13;;;22.20;;
23470;SDS011;11908;50.806;4.424;2023-02-21T01:27:03;43.15;;;21.73;;
23470;SDS011;11908;50.806;4.424;2023-02-21T01:29:47;34.80;;;21.80;;
23470;SDS011;11908;50.806;4.424;2023-02-21T01:32:31;37.22;;;21.88;;
23470;SDS011;11908;50.806;4.424;2023-02-21T01:35:15;38.20;;;23.25;;
23470;SDS011;11908;50.806;4.424;2023-02-21T01:37:59;37.67;;;21.75;;
23470;SDS011;11908;50.806;4.424;2023-02-21T01:40:43;41.17;;;23.40;;
23470;SDS011;11908;50.806;4.424;2023-02-21T01:43:28;32.55;;;21.95;;
23470;SDS011;11908;50.806;4.424;2023-02-21T01:46:16;32.78;;;22.15;;
23470;SDS011;11908;50.806;4.424;2023-02-21T01:49:09;38.47;;;21.23;;
23470;SDS011;11908;50.806;4.424;2023-02-21T01:51:58;38.25;;;19.23;;
23470;SDS011;11908;50.806;4.424;2023-02-21T01:54:45;30.27;;;18.85;;
23470;SDS011;11908;50.806;4.424;2023-02-21T01:57:32;34.47;;;20.08;;
23470;SDS011;11908;50.806;4.424;2023-02-21T02:00:17;25.42;;;17.65;;
23470;SDS011;11908;50.806;4.424;2023-02-21T02:03:03;27.67;;;16.08;;
23470;SDS011;11908;50.806;4.424;2023-02-21T02:05:56;24.77;;;16.08;;
23470;SDS011;11908;50.806;4.424;2023-02-21T02:08:47;24.90;;;15.60;;
23470;SDS011;11908;50.806;4.424;2023-02-21T02:36:43;27.42;;;17.05;;
23470;SDS011;11908;50.806;4.424;2023-02-21T02:39:20;25.95;;;16.48;;
23470;SDS011;11908;50.806;4.424;2023-02-21T02:41:58;24.45;;;15.13;;
23470;SDS011;11908;50.806;4.424;2023-02-21T02:47:02;25.27;;;15.77;;
23470;SDS011;11908;50.806;4.424;2023-02-21T02:49:31;24.92;;;15.88;;
23470;SDS011;11908;50.806;4.424;2023-02-21T02:52:03;30.27;;;15.32;;
23470;SDS011;11908;50.806;4.424;2023-02-21T02:54:30;27.70;;;15.02;;
23470;SDS011;11908;50.806;4.424;2023-02-21T02:56:56;29.73;;;15.80;;
23470;SDS011;11908;50.806;4.424;2023-02-21T02:59:22;25.65;;;16.17;;
23470;SDS011;11908;50.806;4.424;2023-02-21T03:07:47;28.85;;;16.13;;
23470;SDS011;11908;50.806;4.424;2023-02-21T03:10:30;29.27;;;15.80;;
23470;SDS011;11908;50.806;4.424;2023-02-21T03:13:33;28.52;;;16.95;;
23470;SDS011;11908;50.806;4.424;2023-02-21T03:16:09;27.35;;;15.90;;
23470;SDS011;11908;50.806;4.424;2023-02-21T03:18:43;27.92;;;16.98;;
23470;SDS011;11908;50.806;4.424;2023-02-21T03:21:34;31.58;;;16.85;;
23470;SDS011;11908;50.806;4.424;2023-02-21T03:24:04;27.52;;;17.35;;
23470;SDS011;11908;50.806;4.424;2023-02-21T03:26:32;37.45;;;17.45;;
23470;SDS011;11908;50.806;4.424;2023-02-21T03:29:01;34.95;;;17.30;;
23470;SDS011;11908;50.806;4.424;2023-02-21T03:31:29;27.67;;;17.15;;
23470;SDS011;11908;50.806;4.424;2023-02-21T03:34:02;30.02;;;16.50;;
23470;SDS011;11908;50.806;4.424;2023-02-21T03:36:28;27.85;;;16.33;;
23470;SDS011;11908;50.806;4.424;2023-02-21T03:38:54;38.20;;;17.27;;
23470;SDS011;11908;50.806;4.424;2023-02-21T03:41:19;25.88;;;16.52;;
23470;SDS011;11908;50.806;4.424;2023-02-21T03:43:45;27.50;;;16.20;;
23470;SDS011;11908;50.806;4.424;2023-02-21T03:46:11;24.40;;;15.07;;
23470;SDS011;11908;50.806;4.424;2023-02-21T03:48:36;27.15;;;15.60;;
23470;SDS011;11908;50.806;4.424;2023-02-21T03:51:02;24.58;;;14.02;;
23470;SDS011;11908;50.806;4.424;2023-02-21T03:53:28;23.50;;;14.05;;
23470;SDS011;11908;50.806;4.424;2023-02-21T03:55:54;23.20;;;14.68;;
23470;SDS011;11908;50.806;4.424;2023-02-21T03:58:20;21.20;;;13.25;;
23470;SDS011;11908;50.806;4.424;2023-02-21T04:00:46;25.98;;;13.48;;
23470;SDS011;11908;50.806;4.424;2023-02-21T04:03:11;20.60;;;13.32;;
23470;SDS011;11908;50.806;4.424;2023-02-21T04:05:37;23.60;;;14.38;;
23470;SDS011;11908;50.806;4.424;2023-02-21T04:08:03;23.02;;;13.30;;
23470;SDS011;11908;50.806;4.424;2023-02-21T04:10:29;19.98;;;12.75;;
23470;SDS011;11908;50.806;4.424;2023-02-21T04:12:55;18.48;;;12.02;;
23470;SDS011;11908;50.806;4.424;2023-02-21T04:15:21;20.40;;;12.07;;
23470;SDS011;11908;50.806;4.424;2023-02-21T04:17:46;17.52;;;11.90;;
23470;SDS011;11908;50.806;4.424;2023-02-21T04:20:12;18.52;;;11.25;;
23470;SDS011;11908;50.806;4.424;2023-02-21T04:22:39;21.35;;;13.05;;
23470;SDS011;11908;50.806;4.424;2023-02-21T04:25:05;16.77;;;11.35;;
23470;SDS011;11908;50.806;4.424;2023-02-21T04:27:31;19.45;;;11.35;;
23470;SDS011;11908;50.806;4.424;2023-02-21T04:29:58;19.45;;;12.35;;
23470;SDS011;11908;50.806;4.424;2023-02-21T04:32:24;18.10;;;12.02;;
23470;SDS011;11908;50.806;4.424;2023-02-21T04:34:51;19.77;;;12.20;;
23470;SDS011;11908;50.806;4.424;2023-02-21T04:37:17;18.63;;;11.75;;
23470;SDS011;11908;50.806;4.424;2023-02-21T04:39:43;17.92;;;11.35;;
23470;SDS011;11908;50.806;4.424;2023-02-21T04:42:08;17.85;;;11.23;;
23470;SDS011;11908;50.806;4.424;2023-02-21T04:44:34;20.38;;;12.20;;
23470;SDS011;11908;50.806;4.424;2023-02-21T04:47:00;18.75;;;11.60;;
23470;SDS011;11908;50.806;4.424;2023-02-21T04:49:26;16.77;;;10.85;;
23470;SDS011;11908;50.806;4.424;2023-02-21T04:51:52;18.52;;;10.93;;
23470;SDS011;11908;50.806;4.424;2023-02-21T04:54:18;17.08;;;10.00;;
23470;SDS011;11908;50.806;4.424;2023-02-21T04:56:44;16.30;;;10.93;;
23470;SDS011;11908;50.806;4.424;2023-02-21T04:59:09;15.65;;;10.32;;
23470;SDS011;11908;50.806;4.424;2023-02-21T05:01:35;18.42;;;11.02;;
23470;SDS011;11908;50.806;4.424;2023-02-21T05:04:01;17.38;;;10.63;;
23470;SDS011;11908;50.806;4.424;2023-02-21T05:06:27;15.80;;;10.32;;
23470;SDS011;11908;50.806;4.424;2023-02-21T05:08:54;17.33;;;9.75;;
23470;SDS011;11908;50.806;4.424;2023-02-21T05:11:20;14.88;;;9.77;;
23470;SDS011;11908;50.806;4.424;2023-02-21T05:13:47;15.80;;;9.82;;
23470;SDS011;11908;50.806;4.424;2023-02-21T05:16:13;14.38;;;9.20;;
23470;SDS011;11908;50.806;4.424;2023-02-21T05:18:42;15.02;;;8.80;;
23470;SDS011;11908;50.806;4.424;2023-02-21T05:21:09;12.15;;;7.95;;
23470;SDS011;11908;50.806;4.424;2023-02-21T05:23:36;10.93;;;7.95;;
23470;SDS011;11908;50.806;4.424;2023-02-21T05:26:05;12.60;;;8.30;;
23470;SDS011;11908;50.806;4.424;2023-02-21T05:28:33;12.35;;;8.02;;
23470;SDS011;11908;50.806;4.424;2023-02-21T05:30:59;13.25;;;8.07;;
23470;SDS011;11908;50.806;4.424;2023-02-21T05:33:25;12.30;;;7.65;;
23470;SDS011;11908;50.806;4.424;2023-02-21T05:35:50;13.10;;;7.90;;
23470;SDS011;11908;50.806;4.424;2023-02-21T05:38:17;15.05;;;9.30;;
23470;SDS011;11908;50.806;4.424;2023-02-21T05:40:44;14.68;;;7.97;;
23470;SDS011;11908;50.806;4.424;2023-02-21T05:43:10;13.20;;;7.90;;
23470;SDS011;11908;50.806;4.424;2023-02-21T05:45:36;12.02;;;7.95;;
23470;SDS011;11908;50.806;4.424;2023-02-21T05:48:02;13.02;;;8.10;;
23470;SDS011;11908;50.806;4.424;2023-02-21T05:50:28;14.30;;;8.32;;
23470;SDS011;11908;50.806;4.424;2023-02-21T05:52:54;13.23;;;7.97;;
23470;SDS011;11908;50.806;4.424;2023-02-21T05:55:21;11.95;;;7.50;;
23470;SDS011;11908;50.806;4.424;2023-02-21T05:57:47;13.65;;;8.30;;
23470;SDS011;11908;50.806;4.424;2023-02-21T06:00:16;12.52;;;8.23;;
23470;SDS011;11908;50.806;4.424;2023-02-21T06:02:48;13.65;;;7.72;;
23470;SDS011;11908;50.806;4.424;2023-02-21T06:05:15;14.05;;;8.70;;
23470;SDS011;11908;50.806;4.424;2023-02-21T06:07:41;13.15;;;7.88;;
23470;SDS011;11908;50.806;4.424;2023-02-21T06:10:06;13.43;;;8.02;;
23470;SDS011;11908;50.806;4.424;2023-02-21T06:12:32;13.05;;;7.70;;
23470;SDS011;11908;50.806;4.424;2023-02-21T06:14:58;11.73;;;7.43;;
23470;SDS011;11908;50.806;4.424;2023-02-21T06:17:24;12.07;;;7.50;;
23470;SDS011;11908;50.806;4.424;2023-02-21T06:19:49;11.32;;;6.72;;
23470;SDS011;11908;50.806;4.424;2023-02-21T06:22:15;11.90;;;7.65;;
23470;SDS011;11908;50.806;4.424;2023-02-21T06:24:41;11.55;;;7.43;;
23470;SDS011;11908;50.806;4.424;2023-02-21T06:27:07;14.63;;;8.15;;
23470;SDS011;11908;50.806;4.424;2023-02-21T06:29:33;12.85;;;8.57;;
23470;SDS011;11908;50.806;4.424;2023-02-21T06:31:59;14.77;;;7.35;;
23470;SDS011;11908;50.806;4.424;2023-02-21T06:34:25;12.75;;;8.18;;
23470;SDS011;11908;50.806;4.424;2023-02-21T06:36:52;12.68;;;7.90;;
23470;SDS011;11908;50.806;4.424;2023-02-21T06:39:20;17.17;;;7.93;;
23470;SDS011;11908;50.806;4.424;2023-02-21T06:41:48;12.95;;;7.95;;
23470;SDS011;11908;50.806;4.424;2023-02-21T06:44:14;26.48;;;8.48;;
23470;SDS011;11908;50.806;4.424;2023-02-21T06:46:40;21.48;;;7.80;;
23470;SDS011;11908;50.806;4.424;2023-02-21T06:49:07;20.88;;;8.77;;
23470;SDS011;11908;50.806;4.424;2023-02-21T06:51:34;20.73;;;8.00;;
23470;SDS011;11908;50.806;4.424;2023-02-21T06:54:00;29.88;;;9.50;;
23470;SDS011;11908;50.806;4.424;2023-02-21T06:56:26;30.20;;;8.13;;
23470;SDS011;11908;50.806;4.424;2023-02-21T06:58:52;19.25;;;7.85;;
23470;SDS011;11908;50.806;4.424;2023-02-21T07:01:18;20.92;;;8.70;;
23470;SDS011;11908;50.806;4.424;2023-02-21T07:03:44;16.63;;;8.20;;
23470;SDS011;11908;50.806;4.424;2023-02-21T07:06:11;15.80;;;8.48;;
23470;SDS011;11908;50.806;4.424;2023-02-21T07:08:37;26.92;;;9.30;;
23470;SDS011;11908;50.806;4.424;2023-02-21T07:11:03;17.20;;;9.25;;
23470;SDS011;11908;50.806;4.424;2023-02-21T07:13:29;19.13;;;9.75;;
23470;SDS011;11908;50.806;4.424;2023-02-21T07:15:55;21.95;;;9.68;;
23470;SDS011;11908;50.806;4.424;2023-02-21T07:18:21;18.63;;;9.80;;
23470;SDS011;11908;50.806;4.424;2023-02-21T07:20:47;18.70;;;9.48;;
23470;SDS011;11908;50.806;4.424;2023-02-21T07:23:13;22.90;;;10.52;;
23470;SDS011;11908;50.806;4.424;2023-02-21T07:25:39;21.83;;;10.18;;
23470;SDS011;11908;50.806;4.424;2023-02-21T07:28:05;26.23;;;11.65;;
23470;SDS011;11908;50.806;4.424;2023-02-21T07:30:30;22.13;;;11.88;;
23470;SDS011;11908;50.806;4.424;2023-02-21T07:32:56;20.80;;;10.80;;
23470;SDS011;11908;50.806;4.424;2023-02-21T07:35:22;25.35;;;13.48;;
23470;SDS011;11908;50.806;4.424;2023-02-21T07:37:48;21.48;;;12.43;;
23470;SDS011;11908;50.806;4.424;2023-02-21T07:40:14;26.50;;;13.25;;
23470;SDS011;11908;50.806;4.424;2023-02-21T07:42:40;22.92;;;11.82;;
23470;SDS011;11908;50.806;4.424;2023-02-21T07:45:11;27.98;;;13.65;;
23470;SDS011;11908;50.806;4.424;2023-02-21T07:47:37;25.45;;;13.30;;
23470;SDS011;11908;50.806;4.424;2023-02-21T07:50:03;23.48;;;13.40;;
23470;SDS011;11908;50.806;4.424;2023-02-21T07:52:30;26.85;;;14.10;;
23470;SDS011;11908;50.806;4.424;2023-02-21T07:54:55;27.27;;;14.77;;
23470;SDS011;11908;50.806;4.424;2023-02-21T07:57:21;25.00;;;14.57;;
23470;SDS011;11908;50.806;4.424;2023-02-21T07:59:47;53.17;;;14.60;;
23470;SDS011;11908;50.806;4.424;2023-02-21T08:02:13;27.55;;;14.05;;
23470;SDS011;11908;50.806;4.424;2023-02-21T08:04:39;39.15;;;15.43;;
23470;SDS011;11908;50.806;4.424;2023-02-21T08:07:05;33.50;;;15.45;;
23470;SDS011;11908;50.806;4.424;2023-02-21T08:09:32;27.42;;;16.05;;
23470;SDS011;11908;50.806;4.424;2023-02-21T08:11:58;28.58;;;14.85;;
23470;SDS011;11908;50.806;4.424;2023-02-21T08:14:24;31.95;;;16.13;;
23470;SDS011;11908;50.806;4.424;2023-02-21T08:16:49;32.90;;;15.50;;
23470;SDS011;11908;50.806;4.424;2023-02-21T08:19:15;27.00;;;14.98;;
23470;SDS011;11908;50.806;4.424;2023-02-21T08:21:48;35.33;;;16.42;;
23470;SDS011;11908;50.806;4.424;2023-02-21T08:24:14;23.90;;;11.82;;
23470;SDS011;11908;50.806;4.424;2023-02-21T08:26:41;28.38;;;15.60;;
23470;SDS011;11908;50.806;4.424;2023-02-21T08:29:09;28.63;;;14.77;;
23470;SDS011;11908;50.806;4.424;2023-02-21T08:31:36;25.42;;;14.50;;
23470;SDS011;11908;50.806;4.424;2023-02-21T08:34:03;29.52;;;16.48;;
23470;SDS011;11908;50.806;4.424;2023-02-21T08:36:32;28.55;;;15.90;;
23470;SDS011;11908;50.806;4.424;2023-02-21T08:39:00;24.30;;;14.93;;
23470;SDS011;11908;50.806;4.424;2023-02-21T08:41:33;29.35;;;16.48;;
23470;SDS011;11908;50.806;4.424;2023-02-21T08:44:09;38.65;;;15.93;;
23470;SDS011;11908;50.806;4.424;2023-02-21T08:46:36;25.70;;;14.63;;
23470;SDS011;11908;50.806;4.424;2023-02-21T08:49:05;29.25;;;16.55;;
23470;SDS011;11908;50.806;4.424;2023-02-21T08:51:31;28.38;;;14.00;;
23470;SDS011;11908;50.806;4.424;2023-02-21T08:53:58;23.98;;;13.73;;
23470;SDS011;11908;50.806;4.424;2023-02-21T08:56:25;26.05;;;14.43;;
23470;SDS011;11908;50.806;4.424;2023-02-21T08:58:51;26.73;;;14.13;;
23470;SDS011;11908;50.806;4.424;2023-02-21T09:01:20;23.25;;;12.98;;
23470;SDS011;11908;50.806;4.424;2023-02-21T09:03:46;31.95;;;14.43;;
23470;SDS011;11908;50.806;4.424;2023-02-21T09:06:12;21.33;;;12.98;;
23470;SDS011;11908;50.806;4.424;2023-02-21T09:08:38;22.08;;;13.48;;
23470;SDS011;11908;50.806;4.424;2023-02-21T09:11:05;23.65;;;13.63;;
23470;SDS011;11908;50.806;4.424;2023-02-21T09:13:31;25.40;;;14.32;;
23470;SDS011;11908;50.806;4.424;2023-02-21T09:15:57;22.42;;;14.23;;
23470;SDS011;11908;50.806;4.424;2023-02-21T09:18:24;26.23;;;14.32;;
23470;SDS011;11908;50.806;4.424;2023-02-21T09:20:50;22.30;;;13.32;;
23470;SDS011;11908;50.806;4.424;2023-02-21T09:23:18;24.30;;;13.80;;
23470;SDS011;11908;50.806;4.424;2023-02-21T09:25:44;24.25;;;14.75;;
23470;SDS011;11908;50.806;4.424;2023-02-21T09:28:11;22.65;;;13.95;;
23470;SDS011;11908;50.806;4.424;2023-02-21T09:30:36;23.17;;;13.70;;
23470;SDS011;11908;50.806;4.424;2023-02-21T09:33:02;23.80;;;13.55;;
23470;SDS011;11908;50.806;4.424;2023-02-21T09:35:28;22.65;;;12.85;;
23470;SDS011;11908;50.806;4.424;2023-02-21T09:37:55;24.05;;;12.80;;
23470;SDS011;11908;50.806;4.424;2023-02-21T09:43:05;25.65;;;13.95;;
23470;SDS011;11908;50.806;4.424;2023-02-21T09:45:36;25.20;;;14.68;;
23470;SDS011;11908;50.806;4.424;2023-02-21T09:48:11;24.02;;;13.70;;
23470;SDS011;11908;50.806;4.424;2023-02-21T09:50:41;27.23;;;16.05;;
23470;SDS011;11908;50.806;4.424;2023-02-21T09:55:42;26.92;;;15.85;;
23470;SDS011;11908;50.806;4.424;2023-02-21T09:58:09;28.30;;;15.80;;
23470;SDS011;11908;50.806;4.424;2023-02-21T10:00:37;25.80;;;14.73;;
23470;SDS011;11908;50.806;4.424;2023-02-21T10:05:47;23.00;;;13.68;;
23470;SDS011;11908;50.806;4.424;2023-02-21T10:10:57;26.05;;;14.68;;
23470;SDS011;11908;50.806;4.424;2023-02-21T10:13:55;28.92;;;14.70;;
23470;SDS011;11908;50.806;4.424;2023-02-21T10:21:37;25.58;;;13.95;;
23470;SDS011;11908;50.806;4.424;2023-02-21T10:24:25;33.40;;;15.48;;
23470;SDS011;11908;50.806;4.424;2023-02-21T10:26:56;21.33;;;12.55;;
23470;SDS011;11908;50.806;4.424;2023-02-21T10:32:28;29.75;;;13.30;;
23470;SDS011;11908;50.806;4.424;2023-02-21T10:34:55;22.17;;;13.75;;
23470;SDS011;11908;50.806;4.424;2023-02-21T10:40:21;26.40;;;14.00;;
23470;SDS011;11908;50.806;4.424;2023-02-21T10:42:53;25.98;;;14.68;;
23470;SDS011;11908;50.806;4.424;2023-02-21T10:45:40;27.05;;;14.75;;
23470;SDS011;11908;50.806;4.424;2023-02-21T10:48:11;32.25;;;15.48;;
23470;SDS011;11908;50.806;4.424;2023-02-21T10:53:28;27.85;;;16.13;;
23470;SDS011;11908;50.806;4.424;2023-02-21T10:58:45;27.02;;;15.48;;
23470;SDS011;11908;50.806;4.424;2023-02-21T11:11:59;33.95;;;20.23;;
23470;SDS011;11908;50.806;4.424;2023-02-21T11:14:28;39.55;;;20.90;;
23470;SDS011;11908;50.806;4.424;2023-02-21T11:22:07;40.63;;;23.02;;
23470;SDS011;11908;50.806;4.424;2023-02-21T11:24:33;44.35;;;23.73;;
23470;SDS011;11908;50.806;4.424;2023-02-21T11:27:13;44.17;;;22.23;;
23470;SDS011;11908;50.806;4.424;2023-02-21T11:29:43;40.90;;;22.48;;
23470;SDS011;11908;50.806;4.424;2023-02-21T11:32:12;42.80;;;20.80;;
23470;SDS011;11908;50.806;4.424;2023-02-21T11:35:01;52.38;;;21.13;;
23470;SDS011;11908;50.806;4.424;2023-02-21T11:37:33;84.63;;;23.08;;
23470;SDS011;11908;50.806;4.424;2023-02-21T11:51:30;59.20;;;25.65;;
23470;SDS011;11908;50.806;4.424;2023-02-21T11:54:00;48.10;;;24.50;;
23470;SDS011;11908;50.806;4.424;2023-02-21T11:59:58;60.50;;;23.73;;
23470;SDS011;11908;50.806;4.424;2023-02-21T12:16:20;35.58;;;18.85;;
23470;SDS011;11908;50.806;4.424;2023-02-21T12:21:52;39.08;;;17.33;;
23470;SDS011;11908;50.806;4.424;2023-02-21T12:27:12;35.33;;;17.85;;
23470;SDS011;11908;50.806;4.424;2023-02-21T12:29:56;31.77;;;18.50;;
23470;SDS011;11908;50.806;4.424;2023-02-21T12:35:37;42.35;;;18.48;;
23470;SDS011;11908;50.806;4.424;2023-02-21T12:46:27;26.73;;;16.77;;
23470;SDS011;11908;50.806;4.424;2023-02-21T12:54:58;35.50;;;16.75;;
23470;SDS011;11908;50.806;4.424;2023-02-21T13:05:21;31.02;;;16.30;;
23470;SDS011;11908;50.806;4.424;2023-02-21T13:08:05;31.08;;;16.67;;
23470;SDS011;11908;50.806;4.424;2023-02-21T13:10:51;25.60;;;15.60;;
23470;SDS011;11908;50.806;4.424;2023-02-21T13:13:24;24.40;;;15.75;;
23470;SDS011;11908;50.806;4.424;2023-02-21T13:15:53;23.08;;;14.80;;
23470;SDS011;11908;50.806;4.424;2023-02-21T13:20:59;29.95;;;15.13;;
23470;SDS011;11908;50.806;4.424;2023-02-21T13:23:36;34.08;;;14.65;;
23470;SDS011;11908;50.806;4.424;2023-02-21T13:28:52;27.15;;;15.30;;
23470;SDS011;11908;50.806;4.424;2023-02-21T13:31:20;25.63;;;15.32;;
23470;SDS011;11908;50.806;4.424;2023-02-21T13:34:02;25.55;;;14.77;;
23470;SDS011;11908;50.806;4.424;2023-02-21T13:41:44;19.27;;;13.20;;
23470;SDS011;11908;50.806;4.424;2023-02-21T13:44:30;18.80;;;13.10;;
23470;SDS011;11908;50.806;4.424;2023-02-21T13:47:00;35.33;;;14.32;;
23470;SDS011;11908;50.806;4.424;2023-02-21T13:57:38;23.92;;;14.65;;
23470;SDS011;11908;50.806;4.424;2023-02-21T14:06:20;30.33;;;15.43;;
23470;SDS011;11908;50.806;4.424;2023-02-21T14:08:20;33.50;;;16.17;;
23470;SDS011;11908;50.806;4.424;2023-02-21T14:13:38;28.13;;;15.40;;
23470;SDS011;11908;50.806;4.424;2023-02-21T14:21:35;22.23;;;15.13;;
23470;SDS011;11908;50.806;4.424;2023-02-21T14:27:00;21.25;;;14.27;;
23470;SDS011;11908;50.806;4.424;2023-02-21T14:32:43;20.00;;;11.60;;
23470;SDS011;11908;50.806;4.424;2023-02-21T14:38:02;19.13;;;11.75;;
23470;SDS011;11908;50.806;4.424;2023-02-21T14:46:15;16.92;;;12.23;;
23470;SDS011;11908;50.806;4.424;2023-02-21T15:04:58;18.42;;;12.57;;
23470;SDS011;11908;50.806;4.424;2023-02-21T15:10:41;15.40;;;11.40;;
23470;SDS011;11908;50.806;4.424;2023-02-21T15:13:25;19.40;;;11.82;;
23470;SDS011;11908;50.806;4.424;2023-02-21T15:16:04;15.90;;;11.27;;
23470;SDS011;11908;50.806;4.424;2023-02-21T15:21:07;17.40;;;10.95;;
23470;SDS011;11908;50.806;4.424;2023-02-21T15:23:39;15.57;;;10.68;;
23470;SDS011;11908;50.806;4.424;2023-02-21T15:28:46;12.88;;;9.80;;
23470;SDS011;11908;50.806;4.424;2023-02-21T15:31:27;15.55;;;10.63;;
23470;SDS011;11908;50.806;4.424;2023-02-21T15:33:56;15.55;;;10.40;;
23470;SDS011;11908;50.806;4.424;2023-02-21T15:36:21;14.45;;;10.77;;
23470;SDS011;11908;50.806;4.424;2023-02-21T15:38:58;14.25;;;10.80;;
23470;SDS011;11908;50.806;4.424;2023-02-21T15:44:10;16.05;;;10.52;;
23470;SDS011;11908;50.806;4.424;2023-02-21T15:46:59;17.02;;;10.77;;
23470;SDS011;11908;50.806;4.424;2023-02-21T15:49:29;14.85;;;10.35;;
23470;SDS011;11908;50.806;4.424;2023-02-21T15:51:58;17.75;;;11.95;;
23470;SDS011;11908;50.806;4.424;2023-02-21T15:54:27;17.23;;;11.70;;
23470;SDS011;11908;50.806;4.424;2023-02-21T15:57:29;15.98;;;11.52;;
23470;SDS011;11908;50.806;4.424;2023-02-21T15:59:55;16.63;;;11.68;;
23470;SDS011;11908;50.806;4.424;2023-02-21T16:02:40;18.63;;;11.35;;
23470;SDS011;11908;50.806;4.424;2023-02-21T16:05:21;16.65;;;11.60;;
23470;SDS011;11908;50.806;4.424;2023-02-21T16:07:52;18.27;;;12.23;;
23470;SDS011;11908;50.806;4.424;2023-02-21T16:10:24;18.20;;;12.93;;
23470;SDS011;11908;50.806;4.424;2023-02-21T16:12:59;20.00;;;11.95;;
23470;SDS011;11908;50.806;4.424;2023-02-21T16:15:29;22.80;;;12.75;;
23470;SDS011;11908;50.806;4.424;2023-02-21T16:17:59;18.33;;;12.90;;
23470;SDS011;11908;50.806;4.424;2023-02-21T16:20:32;17.20;;;12.38;;
23470;SDS011;11908;50.806;4.424;2023-02-21T16:26:57;17.63;;;12.93;;
23470;SDS011;11908;50.806;4.424;2023-02-21T16:28:42;20.40;;;13.20;;
23470;SDS011;11908;50.806;4.424;2023-02-21T16:31:13;22.15;;;12.77;;
23470;SDS011;11908;50.806;4.424;2023-02-21T16:33:50;19.67;;;13.75;;
23470;SDS011;11908;50.806;4.424;2023-02-21T16:36:28;19.33;;;13.63;;
23470;SDS011;11908;50.806;4.424;2023-02-21T16:38:55;19.58;;;13.10;;
23470;SDS011;11908;50.806;4.424;2023-02-21T16:41:22;20.30;;;14.18;;
23470;SDS011;11908;50.806;4.424;2023-02-21T16:43:49;18.80;;;13.52;;
23470;SDS011;11908;50.806;4.424;2023-02-21T16:46:15;23.90;;;14.98;;
23470;SDS011;11908;50.806;4.424;2023-02-21T16:48:48;21.17;;;15.30;;
23470;SDS011;11908;50.806;4.424;2023-02-21T16:51:15;22.60;;;15.35;;
23470;SDS011;11908;50.806;4.424;2023-02-21T16:53:42;21.08;;;14.63;;
23470;SDS011;11908;50.806;4.424;2023-02-21T16:56:07;25.27;;;15.95;;
23470;SDS011;11908;50.806;4.424;2023-02-21T16:58:37;20.90;;;14.80;;
23470;SDS011;11908;50.806;4.424;2023-02-21T17:01:07;18.13;;;11.40;;
23470;SDS011;11908;50.806;4.424;2023-02-21T17:03:37;20.52;;;14.68;;
23470;SDS011;11908;50.806;4.424;2023-02-21T17:06:04;22.10;;;14.90;;
23470;SDS011;11908;50.806;4.424;2023-02-21T17:08:31;25.00;;;15.55;;
23470;SDS011;11908;50.806;4.424;2023-02-21T17:10:57;24.02;;;16.08;;
23470;SDS011;11908;50.806;4.424;2023-02-21T17:13:23;22.45;;;15.60;;
23470;SDS011;11908;50.806;4.424;2023-02-21T17:15:49;24.73;;;15.00;;
23470;SDS011;11908;50.806;4.424;2023-02-21T17:18:15;28.05;;;16.60;;
23470;SDS011;11908;50.806;4.424;2023-02-21T17:20:41;25.48;;;16.45;;
23470;SDS011;11908;50.806;4.424;2023-02-21T17:23:07;29.20;;;17.30;;
23470;SDS011;11908;50.806;4.424;2023-02-21T17:25:32;29.50;;;19.17;;
23470;SDS011;11908;50.806;4.424;2023-02-21T17:28:00;30.52;;;18.58;;
23470;SDS011;11908;50.806;4.424;2023-02-21T17:30:26;34.75;;;22.73;;
23470;SDS011;11908;50.806;4.424;2023-02-21T17:32:52;29.80;;;17.67;;
23470;SDS011;11908;50.806;4.424;2023-02-21T17:35:18;29.48;;;17.88;;
23470;SDS011;11908;50.806;4.424;2023-02-21T17:37:46;28.27;;;17.85;;
23470;SDS011;11908;50.806;4.424;2023-02-21T17:40:14;31.08;;;18.00;;
23470;SDS011;11908;50.806;4.424;2023-02-21T17:42:41;30.77;;;17.88;;
23470;SDS011;11908;50.806;4.424;2023-02-21T17:45:06;28.95;;;18.25;;
23470;SDS011;11908;50.806;4.424;2023-02-21T17:47:33;29.48;;;19.10;;
23470;SDS011;11908;50.806;4.424;2023-02-21T17:49:59;29.30;;;18.70;;
23470;SDS011;11908;50.806;4.424;2023-02-21T17:52:28;32.25;;;18.58;;
23470;SDS011;11908;50.806;4.424;2023-02-21T17:54:54;29.55;;;18.35;;
23470;SDS011;11908;50.806;4.424;2023-02-21T17:57:19;26.52;;;17.48;;
23470;SDS011;11908;50.806;4.424;2023-02-21T17:59:46;31.90;;;18.60;;
23470;SDS011;11908;50.806;4.424;2023-02-21T18:02:11;29.30;;;18.42;;
23470;SDS011;11908;50.806;4.424;2023-02-21T18:04:38;32.28;;;17.90;;
23470;SDS011;11908;50.806;4.424;2023-02-21T18:07:04;27.90;;;17.58;;
23470;SDS011;11908;50.806;4.424;2023-02-21T18:09:30;30.58;;;19.55;;
23470;SDS011;11908;50.806;4.424;2023-02-21T18:11:57;34.22;;;20.48;;
23470;SDS011;11908;50.806;4.424;2023-02-21T18:14:24;30.42;;;19.08;;
23470;SDS011;11908;50.806;4.424;2023-02-21T18:16:51;34.33;;;21.20;;
23470;SDS011;11908;50.806;4.424;2023-02-21T18:19:20;36.08;;;22.10;;
23470;SDS011;11908;50.806;4.424;2023-02-21T18:21:46;36.35;;;21.83;;
23470;SDS011;11908;50.806;4.424;2023-02-21T18:24:12;42.33;;;26.25;;